Airfield :
LOGIN :

Register | Disclaimer

   EN    FR    IT 

 










Legend :    VFR   Marginal VFR   IFR   Intensive IFR   Very Intensive IFR
Visi :
Ceiling :
>= 8 km
>= 3000ft
5 to 8 km
1000 to 3000 ft
1500m to 5 km
500 to 1000 ft
800 to 1500m
200 to 500 ft
< 800m
< 200 ft
Symbols :   Thunderstorms  Fog  Heavy snow  Heavy precipitations  Wind > 20 kt
SIGMETs :     Misc.  Thunderstorms  Icing  Turbulence  Mountain Waves  Volcanic Ashes







- Airport Elevation : 74 ft
- IATA code : MRS
- Download approach charts


LFML - Marseille / Marignane

CURRENT METAR :
  • 221000Z AUTO 10004KT 050V140 9999 BKN046 OVC054 23/18 Q1012 TEMPO 3000 SHRA BR BKN020 FEW025CB

EXPIRED METARs :
  • 220930Z AUTO VRB03KT 9999 BKN043/// OVC054/// ///TCU 22/17 Q1013 TEMPO 3000 SHRA BR BKN020 FEW025CB
  • 220900Z AUTO 07004KT 040V100 9999 BKN045/// BKN052/// BKN070/// ///TCU 22/18 Q1013 TEMPO 14020G30KT 1500 SHRA BR BKN020 FEW025CB
  • 220830Z AUTO VRB03KT 9999 -RA BKN043/// OVC050/// ///TCU 21/18 Q1013 TEMPO 14020G30KT 1500 SHRA BR BKN020 FEW025CB
  • 220800Z AUTO VRB02KT 9999 OVC041/// ///TCU 21/18 Q1013 TEMPO 1500 SHRA BR BKN020 FEW025CB

TAF TAF LFML
Valid from the 22 at 09:00 until the 23 at 15:00 UTC


220800Z 2209/2315 12010KT 9999 BKN040 TX25/2212Z TN14/2305Z
TEMPO 2209/2302 3000 SHRA BR BKN020 FEW025CB
BECMG 2302/2304 33015G25KT CAVOK
ATIS : +33 4 42 31 15 15
No reported NOTAMs for that airfield.



MET'MAP, your aeronautical weather chart ! - Copyright ORBIFLY December 2007 - Disclaimer

ORBIFLY MET'MAP TEAM :

Programming & Development : Alexandra Zaïnal
Concept & Development : Baudouin d'Aumeries
Co-Development & Prog : Marc-Olivier Méhu
Technical & hardware support : Manuel Goepfert

Contact : metmap@orbifly.com




SOURCES & CREDITS :

   NOAA